createdAt,value
2018-06-04T00:00:36.563Z,75.23
2018-06-04T00:01:36.623Z,75.71
2018-06-04T00:02:36.683Z,75.90
2018-06-04T00:03:36.745Z,75.52
2018-06-04T00:04:36.804Z,75.81
2018-06-04T00:05:36.866Z,74.66
2018-06-04T00:06:36.927Z,76.29
2018-06-04T00:07:36.994Z,73.22
2018-06-04T00:08:37.050Z,75.20
2018-06-04T00:09:37.112Z,74.15
2018-06-04T00:10:37.172Z,74.33
2018-06-04T00:11:37.233Z,74.15
2018-06-04T00:12:37.292Z,71.94
2018-06-04T00:13:37.356Z,73.66
2018-06-04T00:14:37.416Z,74.33
2018-06-04T00:15:37.860Z,74.05
2018-06-04T00:16:37.947Z,73.86
2018-06-04T00:17:37.931Z,73.38
2018-06-04T00:18:38.043Z,72.90
2018-06-04T00:19:38.364Z,72.32
2018-06-04T00:20:37.781Z,70.60
2018-06-04T00:21:37.841Z,70.31
2018-06-04T00:22:38.250Z,73.51
2018-06-04T00:23:38.009Z,74.62
2018-06-04T00:24:38.024Z,74.43
2018-06-04T00:25:38.405Z,71.75
2018-06-04T00:26:38.172Z,71.56
2018-06-04T00:27:38.592Z,69.35
2018-06-04T00:28:38.668Z,71.56
2018-06-04T00:29:38.331Z,69.54
2018-06-04T00:30:38.412Z,72.23
2018-06-04T00:31:38.762Z,72.42
2018-06-04T00:32:38.512Z,71.37
2018-06-04T00:33:38.574Z,71.56
2018-06-04T00:34:38.634Z,68.59
2018-06-04T00:35:38.696Z,67.63
2018-06-04T00:36:38.756Z,65.23
2018-06-04T00:37:38.820Z,69.64
2018-06-04T00:38:38.877Z,69.07
2018-06-04T00:39:38.938Z,68.59
2018-06-04T00:40:38.998Z,69.83
2018-06-04T00:41:39.060Z,67.44
2018-06-04T00:42:39.120Z,68.01
2018-06-04T00:43:39.182Z,68.68
2018-06-04T00:44:39.245Z,68.87
2018-06-04T00:45:39.305Z,67.91
2018-06-04T00:46:39.363Z,67.54
2018-06-04T00:47:39.425Z,69.93
2018-06-04T00:48:39.485Z,65.81
2018-06-04T00:49:39.547Z,68.97
2018-06-04T00:50:39.607Z,69.74
2018-06-04T00:51:39.669Z,68.01
2018-06-04T00:52:39.779Z,68.30
2018-06-04T00:53:39.792Z,67.63
2018-06-04T00:54:39.850Z,66.86
2018-06-04T00:55:39.912Z,66.48
2018-06-04T00:56:39.971Z,63.89
2018-06-04T00:57:40.032Z,62.93
2018-06-04T00:58:40.243Z,65.52
2018-06-04T00:59:40.155Z,65.71
2018-06-04T01:00:40.216Z,66.58
2018-06-04T01:01:40.276Z,66.67
2018-06-04T01:02:40.336Z,66.54
2018-06-04T01:03:40.400Z,63.19
2018-06-04T01:04:40.458Z,65.58
2018-06-04T01:05:40.520Z,62.65
2018-06-04T01:06:40.581Z,63.22
2018-06-04T01:07:40.645Z,66.93
2018-06-04T01:08:40.700Z,65.33
2018-06-04T01:09:40.763Z,63.76
2018-06-04T01:10:40.824Z,65.68
2018-06-04T01:11:40.886Z,65.39
2018-06-04T01:12:40.946Z,67.11
2018-06-04T01:13:41.006Z,64.92
2018-06-04T01:14:41.068Z,62.23
2018-06-04T01:15:41.917Z,63.29
2018-06-04T01:16:41.745Z,64.82
2018-06-04T01:17:41.250Z,65.68
2018-06-04T01:18:41.311Z,67.41
2018-06-04T01:19:41.371Z,66.45
2018-06-04T01:20:41.935Z,63.19
2018-06-04T01:21:42.100Z,64.34
2018-06-04T01:22:42.153Z,64.53
2018-06-04T01:23:42.072Z,65.01
2018-06-04T01:24:42.276Z,63.10
2018-06-04T01:25:41.740Z,63.10
2018-06-04T01:26:42.580Z,64.92
2018-06-04T01:27:42.256Z,64.25
2018-06-04T01:28:42.567Z,64.25
2018-06-04T01:29:42.531Z,66.93
2018-06-04T01:30:42.039Z,66.25
2018-06-04T01:31:42.628Z,63.86
2018-06-04T01:32:42.757Z,62.90
2018-06-04T01:33:42.745Z,62.62
2018-06-04T01:34:42.948Z,61.18
2018-06-04T01:35:42.865Z,61.57
2018-06-04T01:36:42.903Z,59.84
2018-06-04T01:37:43.351Z,59.65
2018-06-04T01:38:43.057Z,60.58
2018-06-04T01:39:43.205Z,57.42
2018-06-04T01:40:42.687Z,57.35
2018-06-04T01:41:43.290Z,58.40
2018-06-04T01:42:42.768Z,61.76
2018-06-04T01:43:42.829Z,60.22
2018-06-04T01:44:42.897Z,61.57
2018-06-04T01:45:42.954Z,60.51
2018-06-04T01:46:43.011Z,63.39
2018-06-04T01:47:43.072Z,63.64
2018-06-04T01:48:43.132Z,61.94
2018-06-04T01:49:43.192Z,58.66
2018-06-04T01:50:43.254Z,57.61
2018-06-04T01:51:43.332Z,57.32
2018-06-04T01:52:43.375Z,57.90
2018-06-04T01:53:43.585Z,57.51
2018-06-04T01:54:43.497Z,57.04
2018-06-04T01:55:43.557Z,57.80
2018-06-04T01:56:43.627Z,57.42
2018-06-04T01:57:43.677Z,57.70
2018-06-04T01:58:43.745Z,59.91
2018-06-04T01:59:43.950Z,59.94
2018-06-04T02:00:43.860Z,60.86
2018-06-04T02:01:43.921Z,58.66
2018-06-04T02:02:43.984Z,57.90
2018-06-04T02:03:44.042Z,56.94
2018-06-04T02:04:44.102Z,51.77
2018-06-04T02:05:44.413Z,49.86
2018-06-04T02:06:44.224Z,49.19
2018-06-04T02:07:44.286Z,52.83
2018-06-04T02:08:44.344Z,53.30
2018-06-04T02:09:44.407Z,53.02
2018-06-04T02:10:44.466Z,51.48
2018-06-04T02:11:44.531Z,51.68
2018-06-04T02:12:44.587Z,54.57
2018-06-04T02:13:44.651Z,54.64
2018-06-04T02:14:44.709Z,57.99
2018-06-04T02:15:44.769Z,59.62
2018-06-04T02:16:44.830Z,58.28
2018-06-04T02:17:44.891Z,57.70
2018-06-04T02:18:44.953Z,58.37
2018-06-04T02:19:45.012Z,56.27
2018-06-04T02:20:45.072Z,55.79
2018-06-04T02:21:45.284Z,53.97
2018-06-04T02:22:45.195Z,53.40
2018-06-04T02:23:45.258Z,54.74
2018-06-04T02:24:45.314Z,55.98
2018-06-04T02:25:45.376Z,53.30
2018-06-04T02:26:45.687Z,51.97
2018-06-04T02:27:45.496Z,50.81
2018-06-04T02:28:45.557Z,50.43
2018-06-04T02:29:45.617Z,51.87
2018-06-04T02:30:45.677Z,53.49
2018-06-04T02:31:45.743Z,51.13
2018-06-04T02:32:45.799Z,51.68
2018-06-04T02:33:45.860Z,54.45
2018-06-04T02:34:45.921Z,54.74
2018-06-04T02:35:45.981Z,56.27
2018-06-04T02:36:46.047Z,56.84
2018-06-04T02:37:46.102Z,54.64
2018-06-04T02:38:46.162Z,52.73
2018-06-04T02:39:46.222Z,52.25
2018-06-04T02:40:46.285Z,53.11
2018-06-04T02:41:46.344Z,54.64
2018-06-04T02:42:46.406Z,53.02
2018-06-04T02:43:46.465Z,54.45
2018-06-04T02:44:46.525Z,53.88
2018-06-04T02:45:46.586Z,55.88
2018-06-04T02:46:46.653Z,53.97
2018-06-04T02:47:46.707Z,52.25
2018-06-04T02:48:46.774Z,51.97
2018-06-04T02:49:46.835Z,53.59
2018-06-04T02:50:46.888Z,53.40
2018-06-04T02:51:46.949Z,52.15
2018-06-04T02:52:47.008Z,54.07
2018-06-04T02:53:47.097Z,53.69
2018-06-04T02:54:47.174Z,54.74
2018-06-04T02:55:47.192Z,54.74
2018-06-04T02:56:47.251Z,55.69
2018-06-04T02:57:47.327Z,52.73
2018-06-04T02:58:47.373Z,53.97
2018-06-04T02:59:47.433Z,52.54
2018-06-04T03:00:47.493Z,53.02
2018-06-04T03:01:47.553Z,53.59
2018-06-04T03:02:47.613Z,55.88
2018-06-04T03:03:47.675Z,53.78
2018-06-04T03:04:47.736Z,54.55
2018-06-04T03:05:47.795Z,54.74
2018-06-04T03:06:47.856Z,54.26
2018-06-04T03:07:47.917Z,54.74
2018-06-04T03:08:47.976Z,49.76
2018-06-04T03:09:48.037Z,48.90
2018-06-04T03:10:48.097Z,49.00
2018-06-04T03:11:48.166Z,49.21
2018-06-04T03:12:48.219Z,55.02
2018-06-04T03:13:48.278Z,53.97
2018-06-04T03:14:48.339Z,53.20
2018-06-04T03:15:49.114Z,52.92
2018-06-04T03:16:49.056Z,52.06
2018-06-04T03:17:49.179Z,52.06
2018-06-04T03:18:48.961Z,49.95
2018-06-04T03:19:48.644Z,49.19
2018-06-04T03:20:48.701Z,50.34
2018-06-04T03:21:48.761Z,53.30
2018-06-04T03:22:48.821Z,53.78
2018-06-04T03:23:48.883Z,52.92
2018-06-04T03:24:48.944Z,53.02
2018-06-04T03:25:49.004Z,50.72
2018-06-04T03:26:49.064Z,50.72
2018-06-04T03:27:49.125Z,52.06
2018-06-04T03:28:49.184Z,52.06
2018-06-04T03:29:49.245Z,49.38
2018-06-04T03:30:49.310Z,48.71
2018-06-04T03:31:49.368Z,51.20
2018-06-04T03:32:49.426Z,54.45
2018-06-04T03:33:49.490Z,55.69
2018-06-04T03:34:49.561Z,54.93
2018-06-04T03:35:49.610Z,58.18
2018-06-04T03:36:49.669Z,55.98
2018-06-04T03:37:49.730Z,53.02
2018-06-04T03:38:49.791Z,53.02
2018-06-04T03:39:49.857Z,52.15
2018-06-04T03:40:49.911Z,51.77
2018-06-04T03:41:49.971Z,54.07
2018-06-04T03:42:50.033Z,53.97
2018-06-04T03:43:50.093Z,56.56
2018-06-04T03:44:50.152Z,58.66
2018-06-04T03:45:50.213Z,59.14
2018-06-04T03:46:50.275Z,59.72
2018-06-04T03:47:50.335Z,56.65
2018-06-04T03:48:50.395Z,56.37
2018-06-04T03:49:50.460Z,55.02
2018-06-04T03:50:50.519Z,58.37
2018-06-04T03:51:50.575Z,57.13
2018-06-04T03:52:50.636Z,58.95
2018-06-04T03:53:50.697Z,57.61
2018-06-04T03:54:50.763Z,59.05
2018-06-04T03:55:50.818Z,60.77
2018-06-04T03:56:50.879Z,60.77
2018-06-04T03:57:50.939Z,58.37
2018-06-04T03:58:51.003Z,57.51
2018-06-04T03:59:51.059Z,57.04
2018-06-04T04:00:51.142Z,56.84
2018-06-04T04:01:51.289Z,57.42
2018-06-04T04:02:51.532Z,59.72
2018-06-04T04:03:51.302Z,60.96
2018-06-04T04:04:51.362Z,58.92
2018-06-04T04:05:51.422Z,55.88
2018-06-04T04:06:51.485Z,58.73
2018-06-04T04:07:51.547Z,57.90
2018-06-04T04:08:51.606Z,55.31
2018-06-04T04:09:51.668Z,56.37
2018-06-04T04:10:51.724Z,55.31
2018-06-04T04:11:51.793Z,58.66
2018-06-04T04:12:51.845Z,57.32
2018-06-04T04:13:51.907Z,56.65
2018-06-04T04:14:51.967Z,58.37
2018-06-04T04:15:52.029Z,56.94
2018-06-04T04:16:52.088Z,58.18
2018-06-04T04:17:52.148Z,56.37
2018-06-04T04:18:52.209Z,56.37
2018-06-04T04:19:52.270Z,49.60
2018-06-04T04:20:52.344Z,49.21
2018-06-04T04:21:52.391Z,56.27
2018-06-04T04:22:52.451Z,52.34
2018-06-04T04:23:52.520Z,54.45
2018-06-04T04:24:52.574Z,55.88
2018-06-04T04:25:52.635Z,54.64
2018-06-04T04:26:52.710Z,53.97
2018-06-04T04:27:52.781Z,55.63
2018-06-04T04:28:52.815Z,58.69
2018-06-04T04:29:52.891Z,57.90
2018-06-04T04:30:52.937Z,54.57
2018-06-04T04:31:52.998Z,53.52
2018-06-04T04:32:53.058Z,56.97
2018-06-04T04:33:53.119Z,58.88
2018-06-04T04:34:53.179Z,64.82
2018-06-04T04:35:53.240Z,64.72
2018-06-04T04:36:53.301Z,56.68
2018-06-04T04:37:53.363Z,50.56
2018-06-04T04:38:53.424Z,51.03
2018-06-04T04:39:53.491Z,53.33
2018-06-04T04:40:53.546Z,54.28
2018-06-04T04:41:53.605Z,54.48
2018-06-04T04:42:53.668Z,54.00
2018-06-04T04:43:53.729Z,52.95
2018-06-04T04:44:53.787Z,53.36
2018-06-04T04:45:53.850Z,55.91
2018-06-04T04:46:53.911Z,56.20
2018-06-04T04:47:53.973Z,54.48
2018-06-04T04:48:54.033Z,55.91
2018-06-04T04:49:54.094Z,52.56
2018-06-04T04:50:54.155Z,55.73
2018-06-04T04:51:54.217Z,58.88
2018-06-04T04:52:54.278Z,55.82
2018-06-04T04:53:54.343Z,52.95
2018-06-04T04:54:54.401Z,49.81
2018-06-04T04:55:54.461Z,54.12
2018-06-04T04:56:54.525Z,54.99
2018-06-04T04:57:54.584Z,55.85
2018-06-04T04:58:54.646Z,57.86
2018-06-04T04:59:54.708Z,66.93
2018-06-04T05:00:54.767Z,64.85
2018-06-04T05:01:54.828Z,68.68
2018-06-04T05:02:54.890Z,66.29
2018-06-04T05:03:55.011Z,66.96
2018-06-04T05:04:55.016Z,67.15
2018-06-04T05:05:55.074Z,67.63
2018-06-04T05:06:55.136Z,66.96
2018-06-04T05:07:55.197Z,65.42
2018-06-04T05:08:55.258Z,63.70
2018-06-04T05:09:55.321Z,62.36
2018-06-04T05:10:55.385Z,63.03
2018-06-04T05:11:55.766Z,63.80
2018-06-04T05:12:55.505Z,64.09
2018-06-04T05:13:55.570Z,63.60
2018-06-04T05:14:55.626Z,65.81
2018-06-04T05:15:56.216Z,65.33
2018-06-04T05:16:56.455Z,63.99
2018-06-04T05:17:56.692Z,62.84
2018-06-04T05:18:56.426Z,64.76
2018-06-04T05:19:56.592Z,65.23
2018-06-04T05:20:56.598Z,63.99
2018-06-04T05:21:56.059Z,57.83
2018-06-04T05:22:56.607Z,55.75
2018-06-04T05:23:56.722Z,55.34
2018-06-04T05:24:56.717Z,55.05
2018-06-04T05:25:56.911Z,54.89
2018-06-04T05:26:56.370Z,56.13
2018-06-04T05:27:57.101Z,58.53
2018-06-04T05:28:57.035Z,60.54
2018-06-04T05:29:57.070Z,61.50
2018-06-04T05:30:57.151Z,63.22
2018-06-04T05:31:57.178Z,62.46
2018-06-04T05:32:57.234Z,63.03
2018-06-04T05:33:57.393Z,65.05
2018-06-04T05:34:57.435Z,65.84
2018-06-04T05:35:57.552Z,66.51
2018-06-04T05:36:57.555Z,70.35
2018-06-04T05:37:57.627Z,73.13
2018-06-04T05:38:57.728Z,75.04
2018-06-04T05:39:57.176Z,75.62
2018-06-04T05:40:57.234Z,75.62
2018-06-04T05:41:57.297Z,74.57
2018-06-04T05:42:57.362Z,74.18
2018-06-04T05:43:57.439Z,76.04
2018-06-04T05:44:57.482Z,76.14
2018-06-04T05:45:57.561Z,78.92
2018-06-04T05:46:57.607Z,79.49
2018-06-04T05:47:57.672Z,79.88
2018-06-04T05:48:57.730Z,81.02
2018-06-04T05:49:57.819Z,82.85
2018-06-04T05:50:57.905Z,84.95
2018-06-04T05:51:57.940Z,84.09
2018-06-04T05:52:58.349Z,82.46
2018-06-04T05:53:58.082Z,81.89
2018-06-04T05:54:58.117Z,82.56
2018-06-04T05:55:58.180Z,82.56
2018-06-04T05:56:58.228Z,82.46
2018-06-04T05:57:58.311Z,83.33
2018-06-04T05:58:58.351Z,83.71
2018-06-04T05:59:58.414Z,84.09
2018-06-04T06:00:58.481Z,85.82
2018-06-04T06:01:58.543Z,85.72
2018-06-04T06:02:58.602Z,85.92
2018-06-04T06:03:58.663Z,86.30
2018-06-04T06:04:58.726Z,87.30
2018-06-04T06:05:58.787Z,88.55
2018-06-04T06:06:58.853Z,87.98
2018-06-04T06:07:58.912Z,88.26
2018-06-04T06:08:58.973Z,90.37
2018-06-04T06:09:59.035Z,90.08
2018-06-04T06:10:59.098Z,90.85
2018-06-04T06:11:59.160Z,89.89
2018-06-04T06:13:00.074Z,88.02
2018-06-04T06:13:59.283Z,87.45
2018-06-04T06:14:59.345Z,87.49
2018-06-04T06:15:59.408Z,88.26
2018-06-04T06:16:59.470Z,90.18
2018-06-04T06:17:59.531Z,90.37
2018-06-04T06:18:59.594Z,91.81
2018-06-04T06:19:59.656Z,91.81
2018-06-04T06:20:59.718Z,91.42
2018-06-04T06:21:59.785Z,92.10
2018-06-04T06:22:59.847Z,92.58
2018-06-04T06:23:59.905Z,92.96
2018-06-04T06:25:00.009Z,92.29
2018-06-04T06:26:00.044Z,92.63
2018-06-04T06:27:00.092Z,93.68
2018-06-04T06:28:00.154Z,95.21
2018-06-04T06:29:00.218Z,94.35
2018-06-04T06:30:00.283Z,95.41
2018-06-04T06:31:00.340Z,96.08
2018-06-04T06:32:00.410Z,96.08
2018-06-04T06:33:00.464Z,96.70
2018-06-04T06:34:00.535Z,97.57
2018-06-04T06:35:00.590Z,99.20
2018-06-04T06:36:00.653Z,99.49
2018-06-04T06:37:00.713Z,99.99
2018-06-04T06:38:00.777Z,99.99
2018-06-04T06:39:00.865Z,99.99
2018-06-04T06:40:00.903Z,99.99
2018-06-04T06:41:00.967Z,99.99
2018-06-04T06:42:01.027Z,99.99
2018-06-04T06:43:01.092Z,99.99
2018-06-04T06:44:01.739Z,99.99
2018-06-04T06:45:01.214Z,99.99
2018-06-04T06:46:01.278Z,99.99
2018-06-04T06:47:01.341Z,99.99
2018-06-04T06:48:01.403Z,99.99
2018-06-04T06:49:01.465Z,99.99
2018-06-04T06:50:01.529Z,99.99
2018-06-04T06:51:01.592Z,99.99
2018-06-04T06:52:01.655Z,99.99
2018-06-04T06:53:01.868Z,99.99
2018-06-04T06:54:01.780Z,99.99
2018-06-04T06:55:01.844Z,99.99
2018-06-04T06:56:01.906Z,99.99
2018-06-04T06:57:01.971Z,99.99
2018-06-04T06:58:02.766Z,99.99
2018-06-04T06:59:02.096Z,99.99
2018-06-04T07:00:02.157Z,99.99
2018-06-04T07:01:02.220Z,99.99
2018-06-04T07:02:02.365Z,99.99
2018-06-04T07:03:02.349Z,99.99
2018-06-04T07:04:02.408Z,99.99
2018-06-04T07:05:02.476Z,99.99
2018-06-04T07:06:02.534Z,99.99
2018-06-04T07:07:02.597Z,99.99
2018-06-04T07:08:03.306Z,99.99
2018-06-04T07:09:02.724Z,99.99
2018-06-04T07:10:02.786Z,99.99
2018-06-04T07:11:03.468Z,99.99
2018-06-04T07:12:03.343Z,99.99
2018-06-04T07:13:02.976Z,99.99
2018-06-04T07:14:03.041Z,99.99
2018-06-04T07:15:03.821Z,99.99
2018-06-04T07:16:03.167Z,99.99
2018-06-04T07:17:03.229Z,99.99
2018-06-04T07:18:03.294Z,99.99
2018-06-04T07:19:03.359Z,99.99
2018-06-04T07:20:03.421Z,99.99
2018-06-04T07:21:03.485Z,99.99
2018-06-04T07:22:03.546Z,99.99
2018-06-04T07:23:03.628Z,99.99
2018-06-04T07:24:04.073Z,99.99
2018-06-04T07:25:04.163Z,99.99
2018-06-04T07:26:04.285Z,99.99
2018-06-04T07:27:04.242Z,99.99
2018-06-04T07:28:03.960Z,99.99
2018-06-04T07:29:03.991Z,99.99
2018-06-04T07:30:04.055Z,99.99
2018-06-04T07:31:04.119Z,99.99
2018-06-04T07:32:04.185Z,99.99
2018-06-04T07:33:04.247Z,99.99
2018-06-04T07:34:04.311Z,99.99
2018-06-04T07:35:04.374Z,99.99
2018-06-04T07:36:04.439Z,99.99
2018-06-04T07:37:04.500Z,99.99
2018-06-04T07:38:04.565Z,99.99
2018-06-04T07:39:04.629Z,99.99
2018-06-04T07:40:04.696Z,99.99
2018-06-04T07:41:04.802Z,99.99
2018-06-04T07:42:04.821Z,99.99
2018-06-04T07:43:04.907Z,99.99
2018-06-04T07:44:04.950Z,99.99
2018-06-04T07:45:05.013Z,99.99
2018-06-04T07:46:05.077Z,99.99
2018-06-04T07:47:05.142Z,99.99
2018-06-04T07:48:05.206Z,99.99
2018-06-04T07:49:05.271Z,99.99
2018-06-04T07:50:05.334Z,99.99
2018-06-04T07:51:05.398Z,99.99
2018-06-04T07:52:06.135Z,99.99
2018-06-04T07:53:05.526Z,99.99
2018-06-04T07:54:05.594Z,99.99
2018-06-04T07:55:05.654Z,99.99
2018-06-04T07:56:05.737Z,99.99
2018-06-04T07:57:05.783Z,99.99
2018-06-04T07:58:05.850Z,99.99
2018-06-04T07:59:05.913Z,99.99
2018-06-04T08:00:05.989Z,99.99
2018-06-04T08:01:06.042Z,99.99
2018-06-04T08:02:06.106Z,99.99
2018-06-04T08:03:06.172Z,99.99
2018-06-04T08:04:06.282Z,99.99
2018-06-04T08:05:06.301Z,99.99
2018-06-04T08:06:06.366Z,99.99
2018-06-04T08:07:06.431Z,99.99
2018-06-04T08:08:06.499Z,98.83
2018-06-04T08:09:06.559Z,99.99
2018-06-04T08:10:06.706Z,98.93
2018-06-04T08:11:06.690Z,98.15
2018-06-04T08:12:06.757Z,96.75
2018-06-04T08:13:06.820Z,96.75
2018-06-04T08:14:06.887Z,95.40
2018-06-04T08:15:06.950Z,96.26
2018-06-04T08:16:07.018Z,96.46
2018-06-04T08:17:07.080Z,95.34
2018-06-04T08:18:07.146Z,93.32
2018-06-04T08:19:07.211Z,92.54
2018-06-04T08:20:07.276Z,93.46
2018-06-04T08:21:07.340Z,93.41
2018-06-04T08:22:07.406Z,91.09
2018-06-04T08:23:07.470Z,90.70
2018-06-04T08:24:07.580Z,90.70
2018-06-04T08:25:07.601Z,90.90
2018-06-04T08:26:07.667Z,91.19
2018-06-04T08:27:07.734Z,90.70
2018-06-04T08:28:07.799Z,89.97
2018-06-04T08:29:07.865Z,90.94
2018-06-04T08:30:07.932Z,90.36
2018-06-04T08:31:07.999Z,89.78
2018-06-04T08:32:08.061Z,89.29
2018-06-04T08:33:08.126Z,89.11
2018-06-04T08:34:08.191Z,88.81
2018-06-04T08:35:08.257Z,88.91
2018-06-04T08:36:08.323Z,88.62
2018-06-04T08:37:08.389Z,88.67
2018-06-04T08:38:08.455Z,87.21
2018-06-04T08:39:08.522Z,85.96
2018-06-04T08:40:08.586Z,86.44
2018-06-04T08:41:08.652Z,86.00
2018-06-04T08:42:08.720Z,85.76
2018-06-04T08:43:08.784Z,84.89
2018-06-04T08:44:08.849Z,85.76
2018-06-04T08:45:08.914Z,84.60
2018-06-04T08:46:09.232Z,84.79
2018-06-04T08:47:09.047Z,85.28
2018-06-04T08:48:09.115Z,85.76
2018-06-04T08:49:09.181Z,85.86
2018-06-04T08:50:09.247Z,85.08
2018-06-04T08:51:09.313Z,84.21
2018-06-04T08:52:09.387Z,85.03
2018-06-04T08:53:09.445Z,84.93
2018-06-04T08:54:09.512Z,84.83
2018-06-04T08:55:09.577Z,84.55
2018-06-04T08:56:09.645Z,82.51
2018-06-04T08:57:09.711Z,81.64
2018-06-04T08:58:09.777Z,80.28
2018-06-04T08:59:09.842Z,78.25
2018-06-04T09:00:09.910Z,79.02
2018-06-04T09:01:09.975Z,80.90
2018-06-04T09:02:10.042Z,78.48
2018-06-04T09:03:10.108Z,79.16
2018-06-04T09:04:10.175Z,79.74
2018-06-04T09:05:10.838Z,79.25
2018-06-04T09:06:10.306Z,79.55
2018-06-04T09:07:10.374Z,79.45
2018-06-04T09:08:10.441Z,79.55
2018-06-04T09:09:10.506Z,78.97
2018-06-04T09:10:10.573Z,79.64
2018-06-04T09:11:10.641Z,81.29
2018-06-04T09:12:10.707Z,81.20
2018-06-04T09:13:10.773Z,79.25
2018-06-04T09:14:10.840Z,78.13
2018-06-04T09:15:10.907Z,76.29
2018-06-04T09:16:11.129Z,75.51
2018-06-04T09:17:11.041Z,75.94
2018-06-04T09:18:11.107Z,74.87
2018-06-04T09:19:11.176Z,75.07
2018-06-04T09:20:11.242Z,74.68
2018-06-04T09:21:11.320Z,74.10
2018-06-04T09:22:11.374Z,74.77
2018-06-04T09:23:11.443Z,73.03
2018-06-04T09:24:11.509Z,73.32
2018-06-04T09:25:11.593Z,71.77
2018-06-04T09:26:11.643Z,69.57
2018-06-04T09:27:11.713Z,70.64
2018-06-04T09:28:11.778Z,70.45
2018-06-04T09:29:11.858Z,70.54
2018-06-04T09:30:11.912Z,70.54
2018-06-04T09:31:11.980Z,70.57
2018-06-04T09:32:12.086Z,70.00
2018-06-04T09:33:12.113Z,69.41
2018-06-04T09:34:12.277Z,67.47
2018-06-04T09:35:12.249Z,68.63
2018-06-04T09:36:12.317Z,68.44
2018-06-04T09:37:12.384Z,68.35
2018-06-04T09:38:12.451Z,68.15
2018-06-04T09:39:12.522Z,67.57
2018-06-04T09:40:12.603Z,67.18
2018-06-04T09:41:12.654Z,67.66
2018-06-04T09:42:12.721Z,66.89
2018-06-04T09:43:12.789Z,67.54
2018-06-04T09:44:12.865Z,67.66
2018-06-04T09:45:12.924Z,66.79
2018-06-04T09:46:12.993Z,66.02
2018-06-04T09:47:13.061Z,66.72
2018-06-04T09:48:13.160Z,66.44
2018-06-04T09:49:13.197Z,66.05
2018-06-04T09:50:13.264Z,65.37
2018-06-04T09:51:13.333Z,66.34
2018-06-04T09:52:13.406Z,65.95
2018-06-04T09:53:13.469Z,66.34
2018-06-04T09:54:13.537Z,66.60
2018-06-04T09:55:13.605Z,66.60
2018-06-04T09:56:14.360Z,66.89
2018-06-04T09:57:14.251Z,67.08
2018-06-04T09:58:13.821Z,65.98
2018-06-04T09:59:14.495Z,67.37
2018-06-04T10:00:14.527Z,66.89
2018-06-04T10:01:14.018Z,65.33
2018-06-04T10:02:14.104Z,65.27
2018-06-04T10:03:14.157Z,65.66
2018-06-04T10:04:14.226Z,64.81
2018-06-04T10:05:14.295Z,63.39
2018-06-04T10:06:14.367Z,62.41
2018-06-04T10:07:14.467Z,63.29
2018-06-04T10:08:14.505Z,63.10
2018-06-04T10:09:14.576Z,63.03
2018-06-04T10:10:14.647Z,62.29
2018-06-04T10:11:14.719Z,62.38
2018-06-04T10:12:14.796Z,62.06
2018-06-04T10:13:14.864Z,63.03
2018-06-04T10:14:14.935Z,62.45
2018-06-04T10:15:15.007Z,61.41
2018-06-04T10:16:15.082Z,62.16
2018-06-04T10:17:15.153Z,63.23
2018-06-04T10:18:15.229Z,62.38
2018-06-04T10:19:15.302Z,61.63
2018-06-04T10:20:15.375Z,59.81
2018-06-04T10:21:15.447Z,59.91
2018-06-04T10:22:15.521Z,59.09
2018-06-04T10:23:15.598Z,57.36
2018-06-04T10:24:15.671Z,57.36
2018-06-04T10:25:15.745Z,56.45
2018-06-04T10:26:15.823Z,55.37
2018-06-04T10:27:15.900Z,56.97
2018-06-04T10:28:15.970Z,57.14
2018-06-04T10:29:16.046Z,56.95
2018-06-04T10:30:16.125Z,57.53
2018-06-04T10:31:16.515Z,58.45
2018-06-04T10:32:16.273Z,58.77
2018-06-04T10:33:16.348Z,57.46
2018-06-04T10:34:16.425Z,57.43
2018-06-04T10:35:16.510Z,57.46
2018-06-04T10:36:16.580Z,57.17
2018-06-04T10:37:16.659Z,57.73
2018-06-04T10:38:16.730Z,59.23
2018-06-04T10:39:16.825Z,59.35
2018-06-04T10:40:16.882Z,57.82
2018-06-04T10:41:16.961Z,57.79
2018-06-04T10:42:17.034Z,59.10
2018-06-04T10:43:17.111Z,60.36
2018-06-04T10:44:17.188Z,60.59
2018-06-04T10:45:17.263Z,59.06
2018-06-04T10:46:17.342Z,57.53
2018-06-04T10:47:17.415Z,57.01
2018-06-04T10:48:17.493Z,58.06
2018-06-04T10:49:17.567Z,58.40
2018-06-04T10:50:17.640Z,57.04
2018-06-04T10:51:17.716Z,57.34
2018-06-04T10:52:17.792Z,57.75
2018-06-04T10:53:17.875Z,56.15
2018-06-04T10:54:17.943Z,55.18
2018-06-04T10:55:18.019Z,53.52
2018-06-04T10:56:18.097Z,54.36
2018-06-04T10:57:18.170Z,53.54
2018-06-04T10:58:18.249Z,53.44
2018-06-04T10:59:18.322Z,52.59
2018-06-04T11:00:18.401Z,52.49
2018-06-04T11:01:18.474Z,52.25
2018-06-04T11:02:18.549Z,55.22
2018-06-04T11:03:18.628Z,56.85
2018-06-04T11:04:18.703Z,56.68
2018-06-04T11:05:18.780Z,55.15
2018-06-04T11:06:18.856Z,53.83
2018-06-04T11:07:18.933Z,54.20
2018-06-04T11:08:19.011Z,54.30
2018-06-04T11:09:19.087Z,54.32
2018-06-04T11:10:19.164Z,53.74
2018-06-04T11:11:19.241Z,52.39
2018-06-04T11:12:19.319Z,53.27
2018-06-04T11:13:19.395Z,54.56
2018-06-04T11:14:19.474Z,53.61
2018-06-04T11:15:19.551Z,53.66
2018-06-04T11:16:19.628Z,55.22
2018-06-04T11:17:19.704Z,54.73
2018-06-04T11:18:19.781Z,56.33
2018-06-04T11:19:19.858Z,57.34
2018-06-04T11:20:19.935Z,54.20
2018-06-04T11:21:20.011Z,54.44
2018-06-04T11:22:20.087Z,56.00
2018-06-04T11:23:20.168Z,55.12
2018-06-04T11:24:20.240Z,54.49
2018-06-04T11:25:20.321Z,52.66
2018-06-04T11:26:20.393Z,52.10
2018-06-04T11:27:20.468Z,52.76
2018-06-04T11:28:20.553Z,53.42
2018-06-04T11:29:20.620Z,53.42
2018-06-04T11:30:20.741Z,54.14
2018-06-04T11:31:20.778Z,55.48
2018-06-04T11:32:20.882Z,55.22
2018-06-04T11:33:20.940Z,53.25
2018-06-04T11:34:21.004Z,52.37
2018-06-04T11:35:21.080Z,52.34
2018-06-04T11:36:21.157Z,52.54
2018-06-04T11:37:21.233Z,51.61
2018-06-04T11:38:21.309Z,49.75
2018-06-04T11:39:21.386Z,49.48
2018-06-04T11:40:21.464Z,49.14
2018-06-04T11:41:21.539Z,47.69
2018-06-04T11:42:21.618Z,46.54
2018-06-04T11:43:21.698Z,47.01
2018-06-04T11:44:21.771Z,47.94
2018-06-04T11:45:21.848Z,47.92
2018-06-04T11:46:21.924Z,47.55
2018-06-04T11:47:22.002Z,46.50
2018-06-04T11:48:22.080Z,45.05
2018-06-04T11:49:22.156Z,44.51
2018-06-04T11:50:22.235Z,43.94
2018-06-04T11:51:22.312Z,44.06
2018-06-04T11:52:22.390Z,43.96
2018-06-04T11:53:22.467Z,44.21
2018-06-04T11:54:22.546Z,46.42
2018-06-04T11:55:22.623Z,47.24
2018-06-04T11:56:22.776Z,48.09
2018-06-04T11:57:22.792Z,49.43
2018-06-04T11:58:22.857Z,48.50
2018-06-04T11:59:22.935Z,47.65
2018-06-04T12:00:23.014Z,46.33
2018-06-04T12:01:23.091Z,45.83
2018-06-04T12:02:23.170Z,45.39
2018-06-04T12:03:23.248Z,45.17
2018-06-04T12:04:23.327Z,45.25
2018-06-04T12:05:23.408Z,44.73
2018-06-04T12:06:23.482Z,47.87
2018-06-04T12:07:23.561Z,49.14
2018-06-04T12:08:23.640Z,49.33
2018-06-04T12:09:23.717Z,48.72
2018-06-04T12:10:23.795Z,46.13
2018-06-04T12:11:23.885Z,44.82
2018-06-04T12:12:23.952Z,45.34
2018-06-04T12:13:24.031Z,45.88
2018-06-04T12:14:24.110Z,44.51
2018-06-04T12:15:24.189Z,44.37
2018-06-04T12:16:24.266Z,45.69
2018-06-04T12:17:24.346Z,46.23
2018-06-04T12:18:24.423Z,46.36
2018-06-04T12:19:24.501Z,46.26
2018-06-04T12:20:24.580Z,47.24
2018-06-04T12:21:24.658Z,47.21
2018-06-04T12:22:25.064Z,47.63
2018-06-04T12:23:24.830Z,46.97
2018-06-04T12:24:24.893Z,45.03
2018-06-04T12:25:24.972Z,44.12
2018-06-04T12:26:25.634Z,44.17
2018-06-04T12:27:25.143Z,44.24
2018-06-04T12:28:25.207Z,44.46
2018-06-04T12:29:25.293Z,44.29
2018-06-04T12:30:25.363Z,43.43
2018-06-04T12:31:25.443Z,43.62
2018-06-04T12:32:25.524Z,43.57
2018-06-04T12:33:26.576Z,43.23
2018-06-04T12:34:25.680Z,43.45
2018-06-04T12:35:25.757Z,42.79
2018-06-04T12:36:25.835Z,43.08
2018-06-04T12:37:25.912Z,42.29
2018-06-04T12:38:26.595Z,41.56
2018-06-04T12:39:26.070Z,42.02
2018-06-04T12:40:26.149Z,42.52
2018-06-04T12:41:26.229Z,40.70
2018-06-04T12:42:26.305Z,40.23
2018-06-04T12:43:26.384Z,40.23
2018-06-04T12:44:26.464Z,40.06
2018-06-04T12:45:26.541Z,40.16
2018-06-04T12:46:26.618Z,40.82
2018-06-04T12:47:26.698Z,41.98
2018-06-04T12:48:26.777Z,42.57
2018-06-04T12:49:26.860Z,41.90
2018-06-04T12:50:27.585Z,40.92
2018-06-04T12:51:27.537Z,40.82
2018-06-04T12:52:27.091Z,41.11
2018-06-04T12:53:27.169Z,41.02